Time;durP1;ratioP1;P1;durP2;ratioP2;P2;SDS_P1;SDS_P2;PMS_P1;PMS_P2;Temp;Humidity;BMP_temperature;BMP_pressure;BME280_temperature;BME280_humidity;BME280_pressure;Samples;Min_cycle;Max_cycle;Signal;HPM_P1;HPM_P2
2021/04/22 00:02:23;;;;;;;1.55;0.52;;;14.80;46.70;;;;;;4992442;28;20046;-81
2021/04/22 00:04:50;;;;;;;4.78;1.75;;;14.70;46.90;;;;;;4991321;28;20038;-81
2021/04/22 00:07:17;;;;;;;3.40;1.05;;;14.70;47.10;;;;;;4993840;28;20502;-81
2021/04/22 00:09:43;;;;;;;3.10;1.08;;;14.70;47.20;;;;;;4994522;28;20515;-80
2021/04/22 00:12:09;;;;;;;4.25;0.82;;;14.60;47.40;;;;;;4994275;28;20034;-80
2021/04/22 00:14:35;;;;;;;4.25;1.23;;;14.60;47.70;;;;;;4993912;28;20026;-80
2021/04/22 00:17:05;;;;;;;3.20;1.25;;;14.50;47.90;;;;;;4991841;28;20051;-80
2021/04/22 00:19:31;;;;;;;4.18;1.02;;;14.40;48.00;;;;;;4992464;28;20034;-81
2021/04/22 00:21:57;;;;;;;11.27;2.45;;;14.40;48.20;;;;;;4973767;28;20051;-81
2021/04/22 00:24:23;;;;;;;6.65;1.92;;;14.40;48.30;;;;;;4990422;28;20033;-80
2021/04/22 00:26:49;;;;;;;1.05;0.45;;;14.40;48.40;;;;;;4992957;28;20039;-80
2021/04/22 00:29:15;;;;;;;6.53;1.25;;;14.30;48.40;;;;;;4993417;28;20027;-81
2021/04/22 00:31:42;;;;;;;3.92;1.45;;;14.40;48.50;;;;;;4975203;28;20377;-79
2021/04/22 00:34:08;;;;;;;4.97;1.67;;;14.30;48.70;;;;;;4991732;28;20034;-81
2021/04/22 00:36:34;;;;;;;2.13;0.95;;;14.30;48.70;;;;;;4992608;28;20026;-80
2021/04/22 00:39:00;;;;;;;2.17;0.88;;;14.30;49.40;;;;;;4992601;28;20030;-81
2021/04/22 00:41:26;;;;;;;3.88;1.25;;;14.20;48.90;;;;;;4993332;28;20514;-81
2021/04/22 00:43:53;;;;;;;4.03;1.73;;;14.20;48.90;;;;;;4993948;28;20046;-81
2021/04/22 00:46:19;;;;;;;4.85;1.60;;;14.20;48.90;;;;;;4990920;28;20054;-81
2021/04/22 00:48:45;;;;;;;3.65;1.20;;;14.20;49.00;;;;;;4995021;28;20046;-80
2021/04/22 00:51:11;;;;;;;4.13;1.77;;;14.20;49.10;;;;;;4992021;28;20039;-80
2021/04/22 00:53:38;;;;;;;2.95;1.15;;;14.20;49.20;;;;;;4976206;28;20042;-80
2021/04/22 00:56:04;;;;;;;5.32;1.42;;;14.10;49.20;;;;;;4990844;28;20046;-80
2021/04/22 00:58:30;;;;;;;7.30;1.30;;;14.10;49.30;;;;;;4992162;28;20045;-81
2021/04/22 01:00:58;;;;;;;2.80;0.85;;;14.10;49.40;;;;;;4974685;28;20476;-81
2021/04/22 01:03:28;;;;;;;2.70;0.88;;;14.10;49.50;;;;;;4974933;28;20049;-81
2021/04/22 01:05:56;;;;;;;3.83;1.35;;;14.00;49.50;;;;;;4991573;28;20030;-81
2021/04/22 01:08:22;;;;;;;1.13;0.47;;;14.00;49.50;;;;;;4991257;28;20042;-81
2021/04/22 01:10:49;;;;;;;3.95;2.08;;;14.00;49.50;;;;;;4975240;28;20038;-81
2021/04/22 01:13:15;;;;;;;4.25;1.80;;;14.00;49.60;;;;;;4991328;28;20387;-81
2021/04/22 01:15:41;;;;;;;6.38;1.38;;;14.00;49.60;;;;;;4990555;28;20041;-81
2021/04/22 01:18:08;;;;;;;4.65;1.95;;;14.00;49.60;;;;;;4976219;28;20038;-81
2021/04/22 01:20:39;;;;;;;10.90;1.90;;;14.00;49.60;;;;;;4988951;28;20030;-81
2021/04/22 01:23:05;;;;;;;6.95;1.88;;;14.00;49.50;;;;;;4986818;28;20475;-81
2021/04/22 01:25:42;;;;;;;5.70;1.73;;;14.00;49.60;;;;;;4991496;28;20034;-81
2021/04/22 01:28:10;;;;;;;3.85;1.63;;;14.00;49.70;;;;;;4992727;28;20403;-79
2021/04/22 01:30:41;;;;;;;4.18;1.40;;;13.90;49.60;;;;;;4991768;28;20049;-81
2021/04/22 01:33:08;;;;;;;10.50;2.75;;;14.00;49.60;;;;;;4992674;28;20031;-81
2021/04/22 01:35:36;;;;;;;8.90;1.92;;;13.90;49.70;;;;;;4991372;28;20034;-81
2021/04/22 01:38:03;;;;;;;7.65;2.55;;;14.00;49.70;;;;;;4970993;28;20022;-80
2021/04/22 01:40:29;;;;;;;5.43;2.50;;;14.00;49.70;;;;;;4991801;28;20030;-81
2021/04/22 01:42:56;;;;;;;2.40;1.17;;;14.00;49.70;;;;;;4991632;28;20061;-80
2021/04/22 01:45:22;;;;;;;9.32;2.40;;;14.00;49.70;;;;;;4991612;28;20046;-80
2021/04/22 01:47:48;;;;;;;6.43;1.98;;;14.00;49.80;;;;;;4992517;28;20034;-81
2021/04/22 01:50:17;;;;;;;4.38;2.22;;;14.00;49.90;;;;;;4990603;28;20026;-81
2021/04/22 01:52:43;;;;;;;11.90;3.20;;;14.00;49.90;;;;;;4990649;28;20065;-81
2021/04/22 01:55:11;;;;;;;9.35;2.75;;;14.00;50.10;;;;;;4991797;28;20514;-81
2021/04/22 01:57:38;;;;;;;6.63;1.92;;;13.90;50.30;;;;;;4992632;28;20046;-80
2021/04/22 02:00:15;;;;;;;8.90;3.20;;;13.80;50.40;;;;;;4991404;28;20037;-81
2021/04/22 02:02:41;;;;;;;5.20;2.33;;;13.80;50.60;;;;;;4977062;28;20051;-80
2021/04/22 02:05:08;;;;;;;6.22;2.92;;;13.80;50.60;;;;;;4966927;28;20483;-80
2021/04/22 02:07:34;;;;;;;6.68;2.35;;;13.70;50.90;;;;;;4972987;28;20035;-81
2021/04/22 02:10:01;;;;;;;7.90;2.60;;;13.70;51.00;;;;;;4990581;28;20391;-81
2021/04/22 02:12:27;;;;;;;8.50;3.25;;;13.70;51.20;;;;;;4989008;28;20030;-79
2021/04/22 02:14:53;;;;;;;3.78;1.77;;;13.60;51.50;;;;;;4990912;28;20049;-80
2021/04/22 02:17:19;;;;;;;7.38;2.63;;;13.50;51.80;;;;;;4991153;28;20391;-80
2021/04/22 02:19:45;;;;;;;9.82;3.78;;;13.60;52.00;;;;;;4991705;28;20038;-81
2021/04/22 02:22:11;;;;;;;5.00;2.28;;;13.50;52.00;;;;;;4990003;28;20487;-80
2021/04/22 02:24:37;;;;;;;7.30;2.00;;;13.50;52.00;;;;;;4989290;28;20038;-81
2021/04/22 02:27:04;;;;;;;10.48;2.78;;;13.50;52.00;;;;;;4990363;28;20487;-81
2021/04/22 02:29:30;;;;;;;8.23;2.30;;;13.50;52.10;;;;;;4990472;28;20042;-80
2021/04/22 02:31:56;;;;;;;15.05;3.70;;;13.50;52.20;;;;;;4990812;28;20053;-81
2021/04/22 02:34:22;;;;;;;8.85;2.70;;;13.40;52.20;;;;;;4974195;28;20038;-81
2021/04/22 02:36:48;;;;;;;7.25;3.05;;;13.40;52.20;;;;;;4991383;28;20057;-81
2021/04/22 02:39:14;;;;;;;10.32;3.40;;;13.40;52.30;;;;;;4994877;28;20033;-81
2021/04/22 02:41:40;;;;;;;7.57;2.20;;;13.40;52.40;;;;;;4995796;28;20046;-80
2021/04/22 02:44:07;;;;;;;9.18;2.40;;;13.40;52.50;;;;;;4994757;28;20039;-81
2021/04/22 02:46:33;;;;;;;12.48;3.28;;;13.40;52.60;;;;;;4976736;28;20507;-81
2021/04/22 02:48:59;;;;;;;13.00;3.13;;;13.30;52.50;;;;;;4996184;28;20054;-81
2021/04/22 02:51:25;;;;;;;8.55;2.58;;;13.30;52.50;;;;;;4994104;28;20403;-81
2021/04/22 02:53:51;;;;;;;11.93;4.10;;;13.30;52.50;;;;;;4994391;28;20041;-81
2021/04/22 02:56:17;;;;;;;6.40;2.50;;;13.30;52.50;;;;;;4994277;28;20471;-81
2021/04/22 02:58:43;;;;;;;12.00;3.13;;;13.30;52.50;;;;;;4993634;28;20034;-81
2021/04/22 03:01:09;;;;;;;6.60;2.17;;;13.20;52.50;;;;;;4993889;28;20502;-80
2021/04/22 03:03:35;;;;;;;6.13;2.53;;;13.20;52.60;;;;;;4995394;28;20035;-81
2021/04/22 03:06:01;;;;;;;5.63;2.50;;;13.20;52.60;;;;;;4993982;28;20499;-81
2021/04/22 03:08:27;;;;;;;7.93;2.10;;;13.20;52.80;;;;;;4995799;28;20038;-81
2021/04/22 03:10:54;;;;;;;3.65;0.73;;;13.20;53.00;;;;;;4994768;28;20030;-80
2021/04/22 03:13:20;;;;;;;14.05;1.55;;;13.10;53.10;;;;;;4995147;28;20030;-81
2021/04/22 03:15:46;;;;;;;7.65;1.80;;;13.10;53.40;;;;;;4990862;28;20038;-80
2021/04/22 03:18:12;;;;;;;7.47;3.35;;;13.00;53.50;;;;;;4993502;28;20034;-81
2021/04/22 03:20:38;;;;;;;6.15;2.08;;;13.00;53.80;;;;;;4995333;28;20034;-82
2021/04/22 03:23:04;;;;;;;6.50;2.97;;;12.90;53.80;;;;;;4992885;28;20222;-80
2021/04/22 03:25:31;;;;;;;8.90;2.72;;;12.90;54.00;;;;;;4995093;28;20034;-81
2021/04/22 03:27:57;;;;;;;8.98;3.08;;;12.90;54.10;;;;;;4994031;28;20038;-80
2021/04/22 03:30:25;;;;;;;9.35;4.25;;;12.80;54.20;;;;;;4993650;28;20042;-80
2021/04/22 03:32:51;;;;;;;4.25;1.90;;;12.80;54.20;;;;;;4992989;28;20030;-81
2021/04/22 03:35:18;;;;;;;13.57;4.35;;;12.90;54.20;;;;;;4977413;28;20065;-81
2021/04/22 03:37:44;;;;;;;12.25;5.63;;;12.80;54.20;;;;;;4992839;28;20483;-80
2021/04/22 03:40:11;;;;;;;7.72;2.67;;;12.80;54.30;;;;;;4994570;28;20033;-80
2021/04/22 03:42:37;;;;;;;9.68;3.25;;;12.80;54.30;;;;;;4976507;28;20411;-81
2021/04/22 03:45:05;;;;;;;7.75;2.58;;;12.80;54.30;;;;;;4995450;28;20027;-80
2021/04/22 03:47:31;;;;;;;13.15;2.47;;;12.80;54.40;;;;;;4991098;28;20057;-80
2021/04/22 03:49:57;;;;;;;5.72;2.50;;;12.70;54.40;;;;;;4993637;28;20463;-81
2021/04/22 03:52:24;;;;;;;6.50;2.42;;;12.70;54.70;;;;;;4994902;28;20038;-81
2021/04/22 03:54:50;;;;;;;5.32;3.53;;;12.60;54.90;;;;;;4994177;28;20578;-79
2021/04/22 03:57:16;;;;;;;11.50;4.10;;;12.50;55.10;;;;;;4993541;28;20395;-81
2021/04/22 03:59:42;;;;;;;10.15;3.28;;;12.50;55.10;;;;;;4992967;28;20033;-79
2021/04/22 04:02:09;;;;;;;9.68;3.38;;;12.40;55.20;;;;;;4990792;28;20491;-79
2021/04/22 04:04:35;;;;;;;9.07;2.55;;;12.40;55.20;;;;;;4976496;28;20050;-79
2021/04/22 04:07:01;;;;;;;4.30;2.33;;;12.40;55.40;;;;;;4993589;28;20057;-79
2021/04/22 04:09:27;;;;;;;5.40;2.35;;;12.30;55.40;;;;;;4994343;28;20023;-78
2021/04/22 04:11:53;;;;;;;1.95;1.05;;;12.30;55.60;;;;;;4993512;28;20026;-79
2021/04/22 04:14:19;;;;;;;2.85;1.45;;;12.30;55.90;;;;;;4994584;28;20480;-79
2021/04/22 04:16:45;;;;;;;7.65;2.58;;;12.20;56.10;;;;;;4990713;28;20512;-79
2021/04/22 04:19:12;;;;;;;7.70;2.15;;;12.20;56.20;;;;;;4973882;28;20046;-79
2021/04/22 04:21:38;;;;;;;10.85;2.00;;;12.10;56.30;;;;;;4986169;28;20034;-79
2021/04/22 04:24:05;;;;;;;7.72;2.80;;;12.10;56.50;;;;;;4974411;28;20051;-79
2021/04/22 04:26:31;;;;;;;9.43;3.17;;;12.00;56.70;;;;;;4992019;28;20053;-79
2021/04/22 04:28:57;;;;;;;4.15;1.65;;;12.00;56.90;;;;;;4992370;28;20038;-79
2021/04/22 04:31:23;;;;;;;7.72;1.60;;;11.90;57.10;;;;;;4991390;28;20069;-79
2021/04/22 04:33:51;;;;;;;7.15;2.65;;;11.90;57.20;;;;;;4994123;28;20037;-79
2021/04/22 04:36:17;;;;;;;5.80;2.65;;;11.90;57.20;;;;;;4993830;28;20030;-79
2021/04/22 04:38:43;;;;;;;6.50;3.10;;;11.90;57.30;;;;;;4992424;28;20030;-79
2021/04/22 04:41:09;;;;;;;5.68;2.00;;;11.90;57.60;;;;;;4991736;28;20033;-79
2021/04/22 04:43:35;;;;;;;7.65;2.33;;;11.80;57.70;;;;;;4994025;28;20042;-79
2021/04/22 04:46:02;;;;;;;7.38;3.53;;;11.70;58.00;;;;;;4993791;28;20503;-79
2021/04/22 04:48:28;;;;;;;10.25;2.70;;;11.70;58.10;;;;;;4991407;28;20443;-79
2021/04/22 04:50:54;;;;;;;5.32;3.10;;;11.70;58.30;;;;;;4994093;28;20022;-79
2021/04/22 04:53:20;;;;;;;5.15;1.98;;;11.60;58.30;;;;;;4992418;28;20038;-80
2021/04/22 04:55:46;;;;;;;8.05;2.17;;;11.60;58.30;;;;;;4992685;28;20089;-79
2021/04/22 04:58:12;;;;;;;6.90;2.65;;;11.70;58.30;;;;;;4992340;28;20045;-79
2021/04/22 05:00:38;;;;;;;12.00;4.30;;;11.70;58.20;;;;;;4992947;28;20050;-79
2021/04/22 05:03:04;;;;;;;13.68;3.55;;;11.70;58.00;;;;;;4992099;28;20275;-78
2021/04/22 05:05:31;;;;;;;10.93;3.45;;;11.70;58.00;;;;;;4993854;28;20094;-78
2021/04/22 05:07:57;;;;;;;6.75;2.80;;;11.70;58.00;;;;;;4991200;28;20042;-79
2021/04/22 05:10:23;;;;;;;9.82;2.28;;;11.70;57.90;;;;;;4991662;28;20049;-79
2021/04/22 05:12:49;;;;;;;10.25;2.60;;;11.80;57.90;;;;;;4992653;28;20038;-79
2021/04/22 05:15:15;;;;;;;13.45;3.78;;;11.70;57.90;;;;;;4975479;28;20395;-79
2021/04/22 05:17:42;;;;;;;9.77;2.75;;;11.70;57.90;;;;;;4992053;28;20046;-79
2021/04/22 05:20:08;;;;;;;7.53;2.58;;;11.70;57.80;;;;;;4975330;28;20037;-78
2021/04/22 05:22:34;;;;;;;10.05;4.13;;;11.70;57.70;;;;;;4990529;28;20447;-79
2021/04/22 05:25:00;;;;;;;14.35;4.47;;;11.80;57.70;;;;;;4992272;28;20038;-79
2021/04/22 05:27:27;;;;;;;6.38;2.58;;;11.80;57.60;;;;;;4993672;28;20395;-79
2021/04/22 05:29:53;;;;;;;11.23;3.13;;;11.90;57.50;;;;;;4975498;28;20487;-79
2021/04/22 05:32:19;;;;;;;9.90;3.72;;;11.90;57.40;;;;;;4991571;28;20038;-79
2021/04/22 05:34:45;;;;;;;8.15;3.13;;;12.00;57.50;;;;;;4992133;28;20407;-79
2021/04/22 05:37:11;;;;;;;20.50;3.50;;;12.00;57.50;;;;;;4992824;28;20041;-79
2021/04/22 05:39:37;;;;;;;3.38;1.73;;;12.00;57.60;;;;;;4992186;28;20038;-81
2021/04/22 05:42:04;;;;;;;8.63;3.42;;;12.00;57.60;;;;;;4992387;28;20030;-80
2021/04/22 05:44:30;;;;;;;8.27;3.65;;;12.00;57.60;;;;;;4991800;28;20434;-78
2021/04/22 05:46:56;;;;;;;9.88;3.38;;;12.10;57.50;;;;;;4991071;28;20042;-79
2021/04/22 05:49:22;;;;;;;5.28;2.67;;;12.10;57.50;;;;;;4992492;28;20411;-78
2021/04/22 05:51:48;;;;;;;10.18;2.63;;;12.20;57.40;;;;;;4991220;28;20285;-81
2021/04/22 05:54:14;;;;;;;11.48;3.22;;;12.30;57.40;;;;;;4993813;28;20506;-80
2021/04/22 05:56:40;;;;;;;11.75;2.92;;;12.30;57.50;;;;;;4976073;28;20043;-79
2021/04/22 05:59:06;;;;;;;5.28;2.78;;;12.40;57.70;;;;;;4991347;28;20395;-79
2021/04/22 06:01:33;;;;;;;7.03;2.28;;;12.40;57.80;;;;;;4990950;28;20061;-80
2021/04/22 06:03:59;;;;;;;17.02;4.47;;;12.40;57.90;;;;;;4991683;28;20085;-78
2021/04/22 06:06:25;;;;;;;7.13;3.58;;;12.40;57.80;;;;;;4991280;28;20392;-79
2021/04/22 06:08:51;;;;;;;6.78;2.45;;;12.50;58.00;;;;;;4990024;28;20041;-79
2021/04/22 06:11:17;;;;;;;5.15;2.28;;;12.50;58.20;;;;;;4991923;28;20396;-79
2021/04/22 06:13:43;;;;;;;4.90;2.33;;;12.40;58.30;;;;;;4991227;28;20404;-78
2021/04/22 06:16:09;;;;;;;6.43;2.22;;;12.50;58.60;;;;;;4992832;28;20056;-79
2021/04/22 06:18:35;;;;;;;5.88;2.58;;;12.50;58.70;;;;;;4990733;28;20471;-79
2021/04/22 06:21:02;;;;;;;5.18;1.15;;;12.50;58.70;;;;;;4992695;28;20472;-79
2021/04/22 06:23:28;;;;;;;7.07;3.72;;;12.50;58.70;;;;;;4991708;28;20037;-76
2021/04/22 06:25:54;;;;;;;10.43;2.53;;;12.70;58.60;;;;;;4990180;28;20026;-77
2021/04/22 06:28:20;;;;;;;8.35;2.15;;;12.70;58.50;;;;;;4991560;28;20033;-78
2021/04/22 06:30:47;;;;;;;7.90;3.13;;;12.80;58.40;;;;;;4990500;28;20046;-78
2021/04/22 06:33:13;;;;;;;6.32;1.58;;;12.90;58.30;;;;;;4992591;28;20395;-81
2021/04/22 06:35:39;;;;;;;11.13;1.75;;;13.00;58.20;;;;;;4989361;28;20065;-81
2021/04/22 06:38:05;;;;;;;8.55;3.47;;;13.10;58.20;;;;;;5020793;28;20030;-80
2021/04/22 06:40:32;;;;;;;5.47;2.47;;;13.20;58.30;;;;;;4988840;28;20507;-81
2021/04/22 06:42:58;;;;;;;8.00;3.15;;;13.20;58.30;;;;;;5003257;28;20030;-82
2021/04/22 06:45:24;;;;;;;7.38;2.72;;;13.30;58.30;;;;;;4986702;28;20042;-78
2021/04/22 06:47:50;;;;;;;1.25;1.00;;;13.40;58.20;;;;;;4989175;28;20491;-80
2021/04/22 06:50:19;;;;;;;9.38;2.50;;;13.60;58.00;;;;;;5005255;28;20034;-81
2021/04/22 06:52:45;;;;;;;5.55;2.38;;;13.70;58.00;;;;;;4991899;28;20049;-80
2021/04/22 06:55:17;;;;;;;3.85;2.28;;;13.70;57.90;;;;;;4955757;28;20054;-82
2021/04/22 06:57:43;;;;;;;;;;;13.80;57.90;;;;;;4990388;28;20018;-82
2021/04/22 07:00:15;;;;;;;3.40;1.55;;;13.80;57.90;;;;;;4990491;28;19917;-80
2021/04/22 07:02:41;;;;;;;7.97;2.75;;;13.90;57.90;;;;;;4993212;28;20038;-81
2021/04/22 07:05:08;;;;;;;3.92;1.35;;;14.00;57.80;;;;;;4994067;28;20035;-79
2021/04/22 07:07:34;;;;;;;7.53;2.70;;;14.00;57.80;;;;;;4997103;28;20042;-78
2021/04/22 07:10:01;;;;;;;15.23;2.15;;;14.10;57.80;;;;;;4974118;28;20476;-81
2021/04/22 07:12:27;;;;;;;11.48;3.22;;;14.20;57.60;;;;;;4993248;28;20031;-82
2021/04/22 07:14:53;;;;;;;6.07;2.30;;;14.30;57.50;;;;;;5004953;28;20169;-81
2021/04/22 07:17:20;;;;;;;3.38;1.35;;;14.40;57.40;;;;;;5006501;28;20027;-80
2021/04/22 07:19:46;;;;;;;13.05;5.00;;;14.40;57.40;;;;;;4991014;28;20065;-81
2021/04/22 07:22:12;;;;;;;0.65;0.30;;;14.50;57.40;;;;;;4991308;28;20034;-79
2021/04/22 07:24:39;;;;;;;9.88;3.33;;;14.50;57.40;;;;;;4992639;28;20399;-79
2021/04/22 07:27:06;;;;;;;5.57;1.52;;;14.60;57.30;;;;;;4991942;28;20594;-79
2021/04/22 07:29:32;;;;;;;2.05;1.15;;;14.70;57.90;;;;;;5007173;28;20412;-78
2021/04/22 07:31:58;;;;;;;5.70;2.10;;;14.70;57.20;;;;;;4993828;28;20034;-79
2021/04/22 07:34:24;;;;;;;1.95;1.13;;;14.80;57.20;;;;;;4990997;28;20419;-84
2021/04/22 07:36:51;;;;;;;5.13;1.13;;;14.90;57.00;;;;;;4971472;28;20041;-79
2021/04/22 07:39:17;;;;;;;1.52;1.05;;;15.00;56.80;;;;;;4990087;28;20495;-78
2021/04/22 07:41:43;;;;;;;6.63;2.17;;;15.10;56.80;;;;;;4991899;28;20026;-79
2021/04/22 07:44:09;;;;;;;13.52;2.65;;;15.10;56.70;;;;;;4992749;28;20641;-81
2021/04/22 07:46:35;;;;;;;3.92;2.08;;;15.10;56.60;;;;;;4990459;28;20037;-79
2021/04/22 07:49:01;;;;;;;1.15;0.50;;;15.10;56.50;;;;;;4991846;28;20515;-82
2021/04/22 07:51:27;;;;;;;7.72;1.85;;;15.30;56.40;;;;;;4990808;28;20030;-85
2021/04/22 07:53:53;;;;;;;4.53;0.80;;;15.40;56.30;;;;;;4974433;28;20031;-82
2021/04/22 07:56:19;;;;;;;2.88;1.75;;;15.40;56.20;;;;;;5024671;28;20037;-82
2021/04/22 07:58:46;;;;;;;3.90;1.48;;;15.40;56.20;;;;;;4970390;28;20392;-79
2021/04/22 08:01:12;;;;;;;6.00;2.20;;;15.50;56.10;;;;;;5021487;28;20039;-78
2021/04/22 08:03:38;;;;;;;4.90;1.15;;;15.60;55.90;;;;;;4990553;28;20502;-79
2021/04/22 08:06:04;;;;;;;3.65;0.98;;;15.60;55.70;;;;;;4992208;28;20464;-75
2021/04/22 08:08:31;;;;;;;3.83;1.88;;;15.70;55.60;;;;;;4991971;28;20411;-79
2021/04/22 08:10:57;;;;;;;9.45;2.25;;;15.80;55.60;;;;;;4993613;28;20031;-87
2021/04/22 08:13:25;;;;;;;1.42;1.20;;;16.00;55.40;;;;;;4991446;28;20037;-79
2021/04/22 08:15:52;;;;;;;3.22;1.45;;;16.20;55.10;;;;;;4970906;28;20045;-79
2021/04/22 08:18:19;;;;;;;13.23;2.08;;;16.40;54.80;;;;;;4978137;28;20492;-79
2021/04/22 08:20:45;;;;;;;8.43;3.38;;;16.50;54.60;;;;;;5023634;28;20027;-80
2021/04/22 08:23:12;;;;;;;6.38;2.13;;;16.70;54.30;;;;;;4992739;28;20030;-80
2021/04/22 08:25:46;;;;;;;9.52;2.40;;;16.80;54.20;;;;;;4991068;28;20467;-83
2021/04/22 08:28:14;;;;;;;1.08;0.40;;;16.90;54.10;;;;;;4973130;28;20026;-82
2021/04/22 08:30:57;;;;;;;4.75;1.63;;;17.10;53.80;;;;;;4987039;28;20038;-84
2021/04/22 08:33:25;;;;;;;9.23;1.95;;;17.30;53.50;;;;;;4974429;28;20046;-88
2021/04/22 08:35:51;;;;;;;0.98;0.52;;;17.30;53.30;;;;;;4992292;28;20037;-83
2021/04/22 08:38:17;;;;;;;1.83;0.82;;;17.40;53.20;;;;;;4993622;28;20030;-81
2021/04/22 08:40:44;;;;;;;5.65;1.25;;;17.40;53.10;;;;;;4995341;28;20037;-82
2021/04/22 08:43:10;;;;;;;8.02;1.95;;;17.40;53.00;;;;;;4992059;28;20030;-80
2021/04/22 08:45:36;;;;;;;6.25;1.88;;;17.50;52.90;;;;;;4975136;28;20061;-80
2021/04/22 08:48:03;;;;;;;1.10;0.70;;;17.50;52.80;;;;;;4990546;28;20423;-84
2021/04/22 08:50:31;;;;;;;3.03;1.15;;;17.60;52.70;;;;;;4990829;28;20042;-83
2021/04/22 08:53:00;;;;;;;2.05;0.77;;;17.70;52.60;;;;;;4973982;28;20068;-82
2021/04/22 08:55:30;;;;;;;4.55;1.85;;;17.80;52.50;;;;;;5019714;28;20037;-82
2021/04/22 08:58:00;;;;;;;4.97;2.03;;;17.90;52.30;;;;;;4990681;28;20511;-84
2021/04/22 09:00:28;;;;;;;4.35;1.25;;;18.00;52.10;;;;;;4991198;28;20053;-82
2021/04/22 09:02:55;;;;;;;2.50;1.02;;;18.20;51.80;;;;;;4973261;28;20045;-79
2021/04/22 09:05:21;;;;;;;4.78;1.30;;;18.30;51.60;;;;;;4988144;28;20058;-79
2021/04/22 09:07:47;;;;;;;4.90;1.70;;;18.30;51.50;;;;;;4986123;28;20038;-79
2021/04/22 09:10:15;;;;;;;6.53;1.23;;;18.30;51.50;;;;;;4986896;28;20471;-78
2021/04/22 09:12:42;;;;;;;6.35;1.75;;;18.30;51.40;;;;;;4987573;28;20061;-79
2021/04/22 09:15:12;;;;;;;11.30;1.38;;;18.40;51.30;;;;;;4987330;28;20045;-79
2021/04/22 09:17:38;;;;;;;4.25;1.33;;;18.50;51.10;;;;;;4973901;28;20031;-78
2021/04/22 09:20:07;;;;;;;1.20;0.30;;;18.50;50.80;;;;;;4959755;28;20065;-78
2021/04/22 09:22:38;;;;;;;3.83;1.42;;;18.50;50.80;;;;;;4997993;28;20026;-79
2021/04/22 09:25:21;;;;;;;3.63;1.52;;;18.60;50.80;;;;;;4990376;28;20038;-79
2021/04/22 09:27:48;;;;;;;2.65;1.23;;;18.80;50.60;;;;;;4990273;28;20495;-80
2021/04/22 09:30:17;;;;;;;2.88;1.17;;;18.90;50.30;;;;;;4989855;28;20369;-80
2021/04/22 09:32:43;;;;;;;9.10;0.95;;;19.00;50.10;;;;;;4991885;28;20506;-79
2021/04/22 09:35:15;;;;;;;5.20;1.83;;;19.10;49.90;;;;;;4992733;28;20049;-78
2021/04/22 09:37:43;;;;;;;4.43;1.65;;;19.20;49.70;;;;;;4992580;28;20479;-79
2021/04/22 09:40:29;;;;;;;3.78;1.25;;;19.30;49.50;;;;;;4991921;28;20037;-79
2021/04/22 09:42:56;;;;;;;5.22;1.70;;;19.30;49.50;;;;;;4990831;28;20053;-77
2021/04/22 09:45:24;;;;;;;6.07;2.67;;;19.30;49.40;;;;;;4990231;28;20480;-79
2021/04/22 09:47:50;;;;;;;1.92;0.77;;;19.30;49.30;;;;;;4993086;28;20057;-80
2021/04/22 09:50:19;;;;;;;5.13;1.02;;;19.40;49.30;;;;;;4991888;28;20061;-84
2021/04/22 09:52:53;;;;;;;1.95;0.55;;;19.50;49.10;;;;;;4973897;28;20034;-78
2021/04/22 09:55:20;;;;;;;2.85;1.08;;;19.60;48.80;;;;;;4991370;28;20360;-78
2021/04/22 09:57:47;;;;;;;3.22;0.80;;;19.60;48.80;;;;;;4990945;28;20562;-77
2021/04/22 10:00:21;;;;;;;7.43;1.80;;;19.70;48.60;;;;;;4991001;28;20037;-84
2021/04/22 10:03:00;;;;;;;2.28;0.80;;;19.80;48.50;;;;;;4992096;28;20038;-84
2021/04/22 10:05:28;;;;;;;2.92;1.40;;;19.90;48.20;;;;;;4990715;28;20046;-85
2021/04/22 10:08:03;;;;;;;3.35;1.48;;;20.00;48.00;;;;;;4990531;28;20037;-82
2021/04/22 10:10:29;;;;;;;4.43;1.25;;;20.10;47.90;;;;;;4992417;28;20041;-86
2021/04/22 10:13:03;;;;;;;4.28;1.83;;;20.10;47.70;;;;;;4991845;28;20030;-82
2021/04/22 10:15:31;;;;;;;3.20;1.55;;;20.30;47.50;;;;;;4989992;28;20049;-83
2021/04/22 10:18:05;;;;;;;6.53;1.75;;;20.30;47.30;;;;;;4975112;28;20053;-82
2021/04/22 10:20:36;;;;;;;1.80;0.45;;;20.30;47.20;;;;;;4991130;28;20034;-84
2021/04/22 10:23:03;;;;;;;6.00;1.73;;;20.40;47.10;;;;;;4991173;28;20030;-82
2021/04/22 10:25:32;;;;;;;5.32;1.33;;;20.40;46.90;;;;;;4989492;28;20042;-89
2021/04/22 10:28:08;;;;;;;5.45;1.45;;;20.50;46.80;;;;;;4993596;28;20037;-83
2021/04/22 10:30:34;;;;;;;5.97;1.45;;;20.60;46.70;;;;;;4978628;28;20053;-87
2021/04/22 10:33:00;;;;;;;8.38;1.30;;;20.70;46.70;;;;;;4994796;28;20468;-85
2021/04/22 10:35:30;;;;;;;2.30;1.15;;;21.00;46.30;;;;;;4994051;28;20053;-85
2021/04/22 10:37:56;;;;;;;1.65;0.20;;;21.20;46.00;;;;;;4978300;28;20090;-81
2021/04/22 10:40:24;;;;;;;0.93;0.57;;;21.10;45.80;;;;;;4995867;28;20510;-79
2021/04/22 10:42:54;;;;;;;5.13;1.67;;;21.10;45.90;;;;;;4977473;28;20065;-79
2021/04/22 10:45:21;;;;;;;3.90;1.15;;;21.00;45.70;;;;;;4992399;28;20090;-80
2021/04/22 10:47:47;;;;;;;1.30;0.57;;;21.00;45.80;;;;;;4994660;28;20065;-79
2021/04/22 10:50:17;;;;;;;3.88;0.93;;;20.90;45.70;;;;;;4993501;28;20495;-79
2021/04/22 10:52:48;;;;;;;1.37;0.60;;;20.90;45.60;;;;;;4995034;28;20023;-80
2021/04/22 10:55:26;;;;;;;2.75;0.82;;;21.00;45.60;;;;;;5007685;28;20050;-79
2021/04/22 10:57:56;;;;;;;3.60;1.55;;;21.00;45.50;;;;;;4993864;28;20030;-80
2021/04/22 11:00:27;;;;;;;2.45;1.13;;;21.00;45.50;;;;;;4993972;28;20026;-80
2021/04/22 11:02:55;;;;;;;4.53;0.80;;;21.20;45.40;;;;;;4994050;28;20033;-79
2021/04/22 11:05:29;;;;;;;3.28;0.90;;;21.30;45.10;;;;;;4993998;28;20034;-79
2021/04/22 11:08:05;;;;;;;5.13;1.45;;;21.30;45.00;;;;;;4993481;28;20039;-79
2021/04/22 11:10:32;;;;;;;7.13;1.02;;;21.30;45.00;;;;;;4994851;28;20496;-79
2021/04/22 11:13:14;;;;;;;1.67;0.63;;;21.50;44.80;;;;;;4993240;28;20061;-79
2021/04/22 11:15:53;;;;;;;1.20;0.45;;;21.70;44.60;;;;;;4993912;28;20423;-79
2021/04/22 11:18:19;;;;;;;1.58;0.77;;;21.70;44.30;;;;;;4993955;28;20045;-80
2021/04/22 11:20:45;;;;;;;4.82;1.63;;;21.70;44.30;;;;;;4993743;28;20376;-80
2021/04/22 11:23:19;;;;;;;1.48;0.75;;;21.80;44.40;;;;;;4990512;28;20034;-80
2021/04/22 11:25:49;;;;;;;1.75;0.43;;;21.80;43.90;;;;;;4993734;28;20049;-80
2021/04/22 11:28:16;;;;;;;3.42;0.88;;;21.80;43.90;;;;;;4975395;28;20042;-80
2021/04/22 11:30:43;;;;;;;1.55;0.57;;;21.70;44.00;;;;;;4992453;28;20487;-79
2021/04/22 11:33:09;;;;;;;0.85;0.22;;;21.70;44.10;;;;;;4994995;28;20487;-81
2021/04/22 11:35:36;;;;;;;2.45;0.90;;;21.80;44.00;;;;;;4985691;28;20026;-85
2021/04/22 11:38:09;;;;;;;3.97;1.02;;;21.90;43.90;;;;;;4993237;28;20041;-84
2021/04/22 11:40:47;;;;;;;3.33;1.27;;;22.00;43.70;;;;;;4989201;28;20026;-82
2021/04/22 11:43:24;;;;;;;2.72;1.25;;;22.00;43.50;;;;;;4993154;28;20408;-81
2021/04/22 11:45:52;;;;;;;3.95;0.68;;;22.00;43.40;;;;;;4970238;28;20047;-81
2021/04/22 11:48:18;;;;;;;2.85;0.88;;;22.10;43.40;;;;;;4955543;28;20050;-81
2021/04/22 11:50:48;;;;;;;1.45;0.45;;;22.20;43.20;;;;;;4973570;28;20038;-81
2021/04/22 11:53:15;;;;;;;3.58;1.17;;;22.30;43.00;;;;;;4973749;28;20030;-80
2021/04/22 11:55:48;;;;;;;0.65;0.50;;;22.40;42.90;;;;;;4974189;28;20037;-81
2021/04/22 11:58:20;;;;;;;1.48;0.55;;;22.40;42.80;;;;;;4970179;28;20031;-81
2021/04/22 12:01:10;;;;;;;0.85;0.43;;;22.40;42.60;;;;;;4974492;28;20045;-82
2021/04/22 12:03:37;;;;;;;6.00;0.52;;;22.30;42.50;;;;;;4992557;28;20027;-82
2021/04/22 12:06:08;;;;;;;1.15;0.57;;;22.20;42.50;;;;;;4996316;28;20030;-82
2021/04/22 12:08:39;;;;;;;3.45;0.55;;;22.30;42.50;;;;;;4977799;28;20053;-81
2021/04/22 12:11:09;;;;;;;1.73;0.57;;;22.30;42.30;;;;;;4988097;28;20030;-82
2021/04/22 12:13:36;;;;;;;1.38;0.55;;;22.30;42.40;;;;;;4992521;28;20022;-82
2021/04/22 12:16:03;;;;;;;3.33;0.68;;;22.30;42.30;;;;;;4993000;28;20035;-81
2021/04/22 12:18:31;;;;;;;1.58;0.43;;;22.40;42.10;;;;;;4976378;28;20042;-81
2021/04/22 12:21:17;;;;;;;1.48;0.52;;;22.40;42.10;;;;;;4993803;28;20037;-81
2021/04/22 12:23:49;;;;;;;1.13;0.30;;;22.50;42.00;;;;;;4993834;28;20026;-80
2021/04/22 12:26:17;;;;;;;1.60;0.50;;;22.60;41.70;;;;;;4992050;28;20046;-84
2021/04/22 12:29:12;;;;;;;2.70;0.93;;;22.60;41.60;;;;;;4995080;28;20071;-81
2021/04/22 12:31:45;;;;;;;2.65;1.13;;;22.50;41.60;;;;;;4992807;28;20038;-81
2021/04/22 12:34:34;;;;;;;5.10;0.77;;;22.40;41.50;;;;;;4993107;28;20031;-80
2021/04/22 12:37:02;;;;;;;1.23;0.50;;;22.50;41.60;;;;;;4993440;28;20502;-83
2021/04/22 12:39:29;;;;;;;1.05;0.30;;;22.50;41.50;;;;;;4992179;28;20041;-83
2021/04/22 12:42:10;;;;;;;0.20;0.08;;;22.40;41.30;;;;;;4991972;28;20034;-78
2021/04/22 12:44:36;;;;;;;1.45;0.40;;;22.50;41.40;;;;;;4978189;28;20045;-78
2021/04/22 12:47:07;;;;;;;1.60;0.77;;;22.50;41.40;;;;;;4990544;28;20042;-79
2021/04/22 12:49:33;;;;;;;0.82;0.57;;;22.50;41.20;;;;;;4993921;28;20038;-80